createdAt,value
2019-03-17T00:01:23.864Z,1.50
2019-03-17T00:06:17.112Z,1.70
2019-03-17T00:11:10.319Z,1.70
2019-03-17T00:16:03.516Z,1.50
2019-03-17T00:20:56.600Z,1.60
2019-03-17T00:25:49.854Z,1.60
2019-03-17T00:30:43.179Z,1.70
2019-03-17T00:35:36.385Z,1.53
2019-03-17T00:40:29.572Z,1.60
2019-03-17T00:45:23.075Z,1.83
2019-03-17T00:50:16.341Z,1.93
2019-03-17T00:55:09.902Z,1.73
2019-03-17T01:00:03.663Z,1.63
2019-03-17T01:04:56.973Z,1.93
2019-03-17T01:09:50.220Z,2.17
2019-03-17T01:14:43.355Z,2.23
2019-03-17T01:19:36.557Z,2.20
2019-03-17T01:24:29.886Z,2.10
2019-03-17T01:29:23.111Z,2.17
2019-03-17T01:34:16.464Z,2.40
2019-03-17T01:39:09.658Z,2.30
2019-03-17T01:44:02.840Z,2.77
2019-03-17T01:48:56.477Z,2.63
2019-03-17T01:53:49.828Z,2.27
2019-03-17T01:58:43.130Z,2.33
2019-03-17T02:03:36.219Z,2.33
2019-03-17T02:08:29.345Z,2.23
2019-03-17T02:13:22.421Z,2.43
2019-03-17T02:18:15.540Z,2.40
2019-03-17T02:23:08.808Z,2.50
2019-03-17T02:28:02.101Z,2.67
2019-03-17T02:32:55.185Z,2.63
2019-03-17T02:37:48.280Z,2.13
2019-03-17T02:42:41.381Z,2.77
2019-03-17T02:47:34.476Z,2.23
2019-03-17T02:52:27.646Z,1.90
2019-03-17T02:57:21.018Z,2.30
2019-03-17T03:02:14.208Z,2.07
2019-03-17T03:07:08.256Z,2.57
2019-03-17T03:12:01.478Z,2.70
2019-03-17T03:16:54.693Z,2.50
2019-03-17T03:21:49.015Z,2.27
2019-03-17T03:26:42.337Z,3.00
2019-03-17T03:31:35.659Z,2.40
2019-03-17T03:36:30.073Z,2.63
2019-03-17T03:41:23.259Z,3.13
2019-03-17T03:46:16.338Z,2.83
2019-03-17T03:51:09.676Z,3.10
2019-03-17T03:56:02.870Z,2.63
2019-03-17T04:00:56.149Z,2.80
2019-03-17T04:05:49.353Z,3.10
2019-03-17T04:10:42.715Z,2.40
2019-03-17T04:15:36.016Z,2.80
2019-03-17T04:20:29.286Z,2.23
2019-03-17T04:25:22.479Z,2.60
2019-03-17T04:30:15.649Z,2.30
2019-03-17T04:35:08.781Z,2.43
2019-03-17T04:40:01.893Z,2.80
2019-03-17T04:44:55.144Z,2.97
2019-03-17T04:49:48.243Z,3.80
2019-03-17T04:54:41.527Z,2.87
2019-03-17T04:59:34.767Z,3.00
2019-03-17T05:04:28.068Z,3.30
2019-03-17T05:09:21.397Z,2.70
2019-03-17T05:14:14.531Z,2.90
2019-03-17T05:19:07.701Z,2.87
2019-03-17T05:24:01.169Z,2.40
2019-03-17T05:28:54.494Z,3.07
2019-03-17T05:33:47.617Z,2.77
2019-03-17T05:38:40.801Z,2.50
2019-03-17T05:43:34.159Z,2.47
2019-03-17T05:48:27.628Z,3.10
2019-03-17T05:53:20.879Z,2.37
2019-03-17T05:58:13.996Z,2.53
2019-03-17T06:03:07.360Z,2.87
2019-03-17T06:08:00.470Z,2.90
2019-03-17T06:12:53.543Z,2.70
2019-03-17T06:17:46.662Z,3.17
2019-03-17T06:22:39.713Z,2.73
2019-03-17T06:27:32.835Z,2.97
2019-03-17T06:32:25.924Z,2.50
2019-03-17T06:37:30.610Z,2.77
2019-03-17T06:42:14.978Z,2.63
2019-03-17T06:47:08.089Z,2.57
2019-03-17T06:52:01.164Z,2.50
2019-03-17T06:56:54.228Z,2.63
2019-03-17T07:01:47.319Z,2.87
2019-03-17T07:06:40.461Z,2.70
2019-03-17T07:11:33.578Z,2.80
2019-03-17T07:16:26.699Z,2.97
2019-03-17T07:21:19.768Z,2.40
2019-03-17T07:26:12.837Z,1.90
2019-03-17T07:31:05.939Z,1.40
2019-03-17T07:35:59.011Z,1.50
2019-03-17T07:40:52.438Z,1.20
2019-03-17T07:45:45.531Z,0.90
2019-03-17T07:50:38.679Z,0.70
2019-03-17T07:55:31.765Z,0.50
2019-03-17T08:00:31.694Z,0.50
2019-03-17T08:05:19.922Z,0.50
2019-03-17T08:10:13.226Z,0.60
2019-03-17T08:15:07.349Z,0.47
2019-03-17T08:20:00.798Z,0.47
2019-03-17T08:24:53.897Z,0.60
2019-03-17T08:29:46.941Z,0.60
2019-03-17T08:34:40.086Z,0.60
2019-03-17T08:39:33.474Z,0.60
2019-03-17T08:44:27.186Z,0.50
2019-03-17T08:49:20.446Z,0.80
2019-03-17T08:54:13.565Z,0.50
2019-03-17T08:59:06.649Z,0.40
2019-03-17T09:03:59.734Z,0.50
2019-03-17T09:08:52.818Z,0.30
2019-03-17T09:13:45.921Z,0.60
2019-03-17T09:18:39.007Z,0.47
2019-03-17T09:23:32.249Z,0.50
2019-03-17T09:28:25.349Z,0.53
2019-03-17T09:33:18.586Z,0.70
2019-03-17T09:38:11.837Z,0.73
2019-03-17T09:43:04.945Z,0.80
2019-03-17T09:47:58.275Z,0.80
2019-03-17T09:52:51.462Z,1.20
2019-03-17T09:57:44.671Z,0.90
2019-03-17T10:02:37.877Z,1.10
2019-03-17T10:07:31.214Z,0.83
2019-03-17T10:12:24.415Z,0.90
2019-03-17T10:17:17.692Z,0.93
2019-03-17T10:22:10.859Z,0.90
2019-03-17T10:27:04.186Z,0.97
2019-03-17T10:31:57.282Z,1.00
2019-03-17T10:36:50.498Z,0.83
2019-03-17T10:41:44.983Z,0.70
2019-03-17T10:46:38.175Z,0.90
2019-03-17T10:51:31.370Z,0.80
2019-03-17T10:56:24.504Z,0.90
2019-03-17T11:01:17.685Z,0.80
2019-03-17T11:06:10.770Z,1.00
2019-03-17T11:11:03.900Z,0.90
2019-03-17T11:15:57.518Z,1.20
2019-03-17T11:20:50.648Z,1.00
2019-03-17T11:25:43.894Z,1.10
2019-03-17T11:30:37.097Z,1.17
2019-03-17T11:35:30.435Z,1.20
2019-03-17T11:40:23.577Z,1.40
2019-03-17T11:45:16.810Z,1.30
2019-03-17T11:50:11.210Z,1.17
2019-03-17T11:55:06.186Z,1.00
2019-03-17T12:00:00.752Z,0.70
2019-03-17T12:04:55.197Z,0.80
2019-03-17T12:09:50.577Z,0.90
2019-03-17T12:14:46.738Z,1.20
2019-03-17T12:19:43.594Z,1.27
2019-03-17T12:24:37.918Z,1.73
2019-03-17T12:29:32.105Z,1.20
2019-03-17T12:34:28.813Z,1.20
2019-03-17T12:39:22.948Z,1.00
2019-03-17T12:44:16.811Z,0.90
2019-03-17T12:49:10.968Z,0.93
2019-03-17T12:54:07.086Z,1.10
2019-03-17T12:59:05.032Z,1.03
2019-03-17T13:03:59.247Z,0.73
2019-03-17T13:08:54.354Z,1.20
2019-03-17T13:13:48.281Z,0.90
2019-03-17T13:18:42.563Z,0.70
2019-03-17T13:23:41.056Z,1.00
2019-03-17T13:28:34.729Z,1.00
2019-03-17T13:33:28.514Z,1.10
2019-03-17T13:38:22.019Z,1.13
2019-03-17T13:43:16.002Z,1.10
2019-03-17T13:48:10.917Z,0.90
2019-03-17T13:53:05.045Z,0.97
2019-03-17T13:57:58.605Z,0.80
2019-03-17T14:02:52.879Z,1.00
2019-03-17T14:07:46.988Z,0.70
2019-03-17T14:12:40.651Z,0.70
2019-03-17T14:17:34.251Z,0.70
2019-03-17T14:22:28.140Z,0.93
2019-03-17T14:27:21.714Z,0.63
2019-03-17T14:32:15.299Z,0.90
2019-03-17T14:37:08.991Z,0.90
2019-03-17T14:42:02.474Z,0.60
2019-03-17T14:46:56.177Z,1.10
2019-03-17T14:51:49.703Z,1.30
2019-03-17T14:56:43.411Z,1.10
2019-03-17T15:01:37.106Z,1.27
2019-03-17T15:06:30.856Z,1.47
2019-03-17T15:11:27.278Z,1.10
2019-03-17T15:16:20.905Z,1.20
2019-03-17T15:21:14.822Z,1.00
2019-03-17T15:26:08.573Z,1.10
2019-03-17T15:31:11.608Z,1.17
2019-03-17T15:35:57.329Z,0.70
2019-03-17T15:40:51.049Z,0.80
2019-03-17T15:45:44.251Z,0.77
2019-03-17T15:50:37.452Z,0.73
2019-03-17T15:55:30.699Z,0.70
2019-03-17T16:00:26.018Z,0.70
2019-03-17T16:05:19.782Z,0.70
2019-03-17T16:10:14.491Z,0.70
2019-03-17T16:15:09.746Z,0.80
2019-03-17T16:20:04.049Z,0.67
2019-03-17T16:24:57.629Z,1.30
2019-03-17T16:29:51.301Z,1.20
2019-03-17T16:34:44.401Z,0.90
2019-03-17T16:39:38.145Z,1.07
2019-03-17T16:44:31.747Z,0.80
2019-03-17T16:49:27.338Z,0.77
2019-03-17T16:54:20.376Z,0.67
2019-03-17T16:59:13.915Z,0.80
2019-03-17T17:04:07.666Z,0.80
2019-03-17T17:09:01.254Z,0.77
2019-03-17T17:13:54.348Z,0.83
2019-03-17T17:18:48.109Z,0.47
2019-03-17T17:23:41.895Z,0.50
2019-03-17T17:28:35.558Z,0.70
2019-03-17T17:33:29.078Z,0.90
2019-03-17T17:38:22.200Z,0.83
2019-03-17T17:43:16.927Z,1.00
2019-03-17T17:48:10.015Z,0.83
2019-03-17T17:53:03.613Z,0.80
2019-03-17T17:57:56.684Z,0.90
2019-03-17T18:02:49.801Z,0.70
2019-03-17T18:07:42.891Z,0.90
2019-03-17T18:12:36.008Z,0.93
2019-03-17T18:17:29.081Z,0.70
2019-03-17T18:22:22.199Z,1.10
2019-03-17T18:27:18.058Z,0.70
2019-03-17T18:32:10.326Z,0.60
2019-03-17T18:37:03.427Z,0.63
2019-03-17T18:41:56.511Z,0.60
2019-03-17T18:46:49.607Z,0.60
2019-03-17T18:51:42.674Z,0.70
2019-03-17T18:56:35.785Z,0.83
2019-03-17T19:01:28.875Z,0.80
2019-03-17T19:06:22.030Z,0.80
2019-03-17T19:11:15.124Z,0.70
2019-03-17T19:16:08.236Z,0.70
2019-03-17T19:21:01.325Z,0.80
2019-03-17T19:25:54.413Z,1.10
2019-03-17T19:30:47.508Z,1.40
2019-03-17T19:35:40.637Z,1.20
2019-03-17T19:40:33.708Z,1.30
2019-03-17T19:45:26.850Z,0.90
2019-03-17T19:50:20.108Z,0.90
2019-03-17T19:55:13.181Z,0.80
2019-03-17T20:05:12.726Z,1.40
2019-03-17T20:10:09.087Z,1.00
2019-03-17T20:15:02.933Z,1.63
2019-03-17T20:19:56.043Z,1.00
2019-03-17T20:24:49.856Z,1.30
2019-03-17T20:29:43.360Z,1.30
2019-03-17T20:34:36.470Z,1.33
2019-03-17T20:39:29.766Z,1.13
2019-03-17T20:44:22.877Z,0.90
2019-03-17T20:49:16.010Z,1.20
2019-03-17T20:54:09.077Z,1.17
2019-03-17T20:59:02.213Z,1.10
2019-03-17T21:03:55.361Z,1.17
2019-03-17T21:08:48.504Z,1.30
2019-03-17T21:13:46.571Z,1.60
2019-03-17T21:18:36.646Z,1.30
2019-03-17T21:23:29.767Z,1.50
2019-03-17T21:28:22.948Z,1.30
2019-03-17T21:33:16.069Z,1.10
2019-03-17T21:38:10.111Z,1.27
2019-03-17T21:43:03.308Z,0.93
2019-03-17T21:47:56.405Z,1.50
2019-03-17T21:52:49.549Z,1.30
2019-03-17T21:57:42.699Z,1.70
2019-03-17T22:02:35.828Z,1.13
2019-03-17T22:07:28.977Z,1.83
2019-03-17T22:12:22.147Z,1.20
2019-03-17T22:17:17.093Z,1.30
2019-03-17T22:22:10.227Z,1.30
2019-03-17T22:27:04.313Z,1.70
2019-03-17T22:31:57.481Z,1.40
2019-03-17T22:36:50.606Z,1.37
2019-03-17T22:41:43.703Z,5.33
2019-03-17T22:46:36.797Z,1.63
2019-03-17T22:51:29.943Z,1.50
2019-03-17T22:56:23.068Z,1.73
2019-03-17T23:01:16.171Z,1.47
2019-03-17T23:06:09.302Z,1.50
2019-03-17T23:11:02.414Z,1.57
2019-03-17T23:15:55.544Z,1.93
2019-03-17T23:20:48.694Z,2.07
2019-03-17T23:25:41.848Z,2.07
2019-03-17T23:30:34.959Z,1.57
2019-03-17T23:35:28.084Z,1.50
2019-03-17T23:40:21.254Z,1.43
2019-03-17T23:45:14.689Z,1.30
2019-03-17T23:50:08.468Z,1.37
2019-03-17T23:55:01.606Z,1.50
2019-03-17T23:59:54.694Z,1.43
